Time;durP1;ratioP1;P1;durP2;ratioP2;P2;SDS_P1;SDS_P2;PMS_P1;PMS_P2;Temp;Humidity;BMP_temperature;BMP_pressure;BME280_temperature;BME280_humidity;BME280_pressure;Samples;Min_cycle;Max_cycle;Signal;HPM_P1;HPM_P2
2023/09/30 00:01:18;;;;;;;;;;;18.00;99.90;;;;;;7592609;19;19918;-77
2023/09/30 00:03:51;;;;;;;;;;;18.00;99.90;;;;;;7598168;19;19918;-76
2023/09/30 00:06:24;;;;;;;;;;;18.00;99.90;;;;;;7592138;19;20534;-76
2023/09/30 00:08:57;;;;;;;;;;;18.00;99.90;;;;;;7576398;19;20353;-76
2023/09/30 00:11:29;;;;;;;;;;;17.90;99.90;;;;;;7577751;19;19919;-79
2023/09/30 00:14:02;;;;;;;;;;;17.90;99.90;;;;;;7585964;19;19918;-79
2023/09/30 00:16:34;;;;;;;;;;;17.90;99.90;;;;;;7583278;19;20340;-79
2023/09/30 00:19:08;;;;;;;;;;;17.80;99.90;;;;;;7586116;19;19925;-78
2023/09/30 00:21:40;;;;;;;;;;;17.80;99.90;;;;;;7582869;19;19915;-78
2023/09/30 00:24:12;;;;;;;;;;;17.80;99.90;;;;;;7576556;19;20776;-78
2023/09/30 00:26:46;;;;;;;;;;;17.80;99.90;;;;;;7596103;19;19955;-78
2023/09/30 00:29:18;;;;;;;;;;;17.70;99.90;;;;;;7589252;19;19974;-77
2023/09/30 00:31:50;;;;;;;;;;;17.70;99.90;;;;;;7582811;19;20388;-78
2023/09/30 00:34:22;;;;;;;;;;;17.80;99.90;;;;;;7588285;19;19926;-77
2023/09/30 00:36:54;;;;;;;;;;;17.90;99.90;;;;;;7571840;19;19969;-77
2023/09/30 00:39:30;;;;;;;;;;;17.90;99.90;;;;;;7589865;19;19922;-77
2023/09/30 00:42:04;;;;;;;;;;;17.90;99.90;;;;;;7585258;19;19925;-77
2023/09/30 00:44:43;;;;;;;;;;;17.80;99.90;;;;;;7596346;19;20573;-79
2023/09/30 00:47:26;;;;;;;;;;;17.80;99.90;;;;;;7589247;19;20741;-78
2023/09/30 00:49:58;;;;;;;;;;;17.90;99.90;;;;;;7578432;19;20019;-77
2023/09/30 00:52:31;;;;;;;;;;;17.80;99.90;;;;;;7585927;19;19925;-78
2023/09/30 00:55:05;;;;;;;;;;;17.80;99.90;;;;;;7595474;19;19934;-79
2023/09/30 00:57:38;;;;;;;;;;;17.70;99.90;;;;;;7588937;19;19919;-76
2023/09/30 01:00:12;;;;;;;;;;;17.70;99.90;;;;;;7586048;19;19925;-78
2023/09/30 01:02:44;;;;;;;;;;;17.70;99.90;;;;;;7568648;19;19923;-79
2023/09/30 01:05:17;;;;;;;;;;;17.60;99.90;;;;;;7585776;19;19911;-78
2023/09/30 01:07:49;;;;;;;;;;;17.60;99.90;;;;;;7578172;19;20435;-79
2023/09/30 01:10:22;;;;;;;;;;;17.70;99.90;;;;;;7583924;19;19933;-78
2023/09/30 01:12:54;;;;;;;;;;;17.60;99.90;;;;;;7583526;19;20514;-78
2023/09/30 01:15:28;;;;;;;;;;;17.60;99.90;;;;;;7574801;19;19926;-77
2023/09/30 01:18:03;;;;;;;;;;;17.60;99.90;;;;;;7579689;19;19934;-78
2023/09/30 01:20:36;;;;;;;;;;;17.60;99.90;;;;;;7588000;19;19919;-77
2023/09/30 01:23:11;;;;;;;;;;;17.70;99.90;;;;;;7577931;19;19926;-77
2023/09/30 01:25:44;;;;;;;;;;;17.60;99.90;;;;;;7570502;19;19927;-76
2023/09/30 01:28:16;;;;;;;;;;;17.70;99.90;;;;;;7584380;19;19919;-77
2023/09/30 01:30:49;;;;;;;;;;;17.60;99.90;;;;;;7569361;19;19918;-77
2023/09/30 01:33:22;;;;;;;;;;;17.70;99.90;;;;;;7587594;19;19915;-77
2023/09/30 01:35:55;;;;;;;;;;;17.70;99.90;;;;;;7590458;19;19950;-76
2023/09/30 01:38:27;;;;;;;;;;;17.70;99.90;;;;;;7600194;19;20294;-77
2023/09/30 01:40:59;;;;;;;;;;;17.70;99.90;;;;;;7586857;19;19922;-77
2023/09/30 01:43:35;;;;;;;;;;;17.70;99.90;;;;;;7593157;19;19923;-79
2023/09/30 01:46:07;;;;;;;;;;;17.70;99.90;;;;;;7593106;19;20483;-78
2023/09/30 01:48:43;;;;;;;;;;;17.60;99.90;;;;;;7587280;19;19914;-79
2023/09/30 01:51:15;;;;;;;;;;;17.50;99.90;;;;;;7597703;19;19925;-79
2023/09/30 01:53:47;;;;;;;;;;;17.50;99.90;;;;;;7591384;19;20770;-78
2023/09/30 01:56:21;;;;;;;;;;;17.50;99.90;;;;;;7586769;19;20022;-79
2023/09/30 01:58:54;;;;;;;;;;;17.50;99.90;;;;;;7592433;19;19930;-77
2023/09/30 02:01:26;;;;;;;;;;;17.40;99.90;;;;;;7612494;19;19922;-79
2023/09/30 02:03:58;;;;;;;;;;;17.40;99.90;;;;;;7605109;19;19926;-79
2023/09/30 02:06:31;;;;;;;;;;;17.40;99.90;;;;;;7610524;19;19924;-76
2023/09/30 02:09:04;;;;;;;;;;;17.40;99.90;;;;;;7614993;19;20319;-79
2023/09/30 02:11:37;;;;;;;;;;;17.50;99.90;;;;;;7609479;19;19952;-77
2023/09/30 02:14:13;;;;;;;;;;;17.50;99.90;;;;;;7608770;19;19970;-77
2023/09/30 02:16:45;;;;;;;;;;;17.50;99.90;;;;;;7597147;19;20443;-77
2023/09/30 02:19:19;;;;;;;;;;;17.50;99.90;;;;;;7616795;19;19943;-77
2023/09/30 02:21:51;;;;;;;;;;;17.50;99.90;;;;;;7612044;19;19906;-77
2023/09/30 02:24:24;;;;;;;;;;;17.60;99.90;;;;;;7607939;19;19919;-77
2023/09/30 02:26:57;;;;;;;;;;;17.50;99.90;;;;;;7612053;19;19915;-77
2023/09/30 02:29:30;;;;;;;;;;;17.40;99.90;;;;;;7613276;19;20605;-77
2023/09/30 02:32:03;;;;;;;;;;;17.40;99.90;;;;;;7614583;19;19922;-79
2023/09/30 02:34:35;;;;;;;;;;;17.40;99.90;;;;;;7614325;19;19915;-79
2023/09/30 02:37:07;;;;;;;;;;;17.50;99.90;;;;;;7612286;19;20681;-77
2023/09/30 02:39:39;;;;;;;;;;;17.50;99.90;;;;;;7607627;19;19947;-79
2023/09/30 02:42:12;;;;;;;;;;;17.40;99.90;;;;;;7615029;19;19910;-79
2023/09/30 02:44:44;;;;;;;;;;;17.40;99.90;;;;;;7614766;19;19957;-77
2023/09/30 02:47:17;;;;;;;;;;;17.40;99.90;;;;;;7622165;19;19934;-77
2023/09/30 02:49:49;;;;;;;;;;;17.50;99.90;;;;;;7620329;19;19915;-79
2023/09/30 02:52:21;;;;;;;;;;;17.40;99.90;;;;;;7621918;19;19923;-78
2023/09/30 02:54:54;;;;;;;;;;;17.40;99.90;;;;;;7614022;19;19923;-78
2023/09/30 02:57:31;;;;;;;;;;;17.40;99.90;;;;;;7614839;19;19929;-78
2023/09/30 03:00:14;;;;;;;;;;;17.40;99.90;;;;;;7626648;19;19994;-78
2023/09/30 03:02:47;;;;;;;;;;;17.50;99.90;;;;;;7617646;19;19931;-78
2023/09/30 03:05:20;;;;;;;;;;;17.50;99.90;;;;;;7624533;19;19914;-79
2023/09/30 03:07:52;;;;;;;;;;;17.50;99.90;;;;;;7625357;19;19919;-77
2023/09/30 03:10:26;;;;;;;;;;;17.50;99.90;;;;;;7618977;19;19918;-77
2023/09/30 03:13:01;;;;;;;;;;;17.60;99.90;;;;;;7622415;19;19919;-76
2023/09/30 03:15:34;;;;;;;;;;;17.50;99.90;;;;;;7623308;19;20753;-79
2023/09/30 03:18:07;;;;;;;;;;;17.50;99.90;;;;;;7621479;19;19918;-76
2023/09/30 03:20:40;;;;;;;;;;;17.40;99.90;;;;;;7630321;19;19947;-78
2023/09/30 03:23:14;;;;;;;;;;;17.30;99.90;;;;;;7632182;19;20246;-76
2023/09/30 03:25:46;;;;;;;;;;;17.40;99.90;;;;;;7630025;19;19919;-78
2023/09/30 03:28:18;;;;;;;;;;;17.30;99.90;;;;;;7643710;19;19918;-78
2023/09/30 03:30:51;;;;;;;;;;;17.30;99.90;;;;;;7659344;19;19934;-78
2023/09/30 03:33:23;;;;;;;;;;;17.30;99.90;;;;;;7632076;19;19914;-79
2023/09/30 03:35:58;;;;;;;;;;;17.20;99.90;;;;;;7627019;19;19926;-77
2023/09/30 03:38:31;;;;;;;;;;;17.20;99.90;;;;;;7632131;19;19939;-79
2023/09/30 03:41:03;;;;;;;;;;;17.20;99.90;;;;;;7630282;19;20481;-79
2023/09/30 03:43:40;;;;;;;;;;;17.20;99.90;;;;;;7631148;19;20280;-78
2023/09/30 03:46:12;;;;;;;;;;;17.10;99.90;;;;;;7625767;19;20018;-78
2023/09/30 03:48:45;;;;;;;;;;;17.00;99.90;;;;;;7624341;19;19926;-77
2023/09/30 03:51:17;;;;;;;;;;;17.00;99.90;;;;;;7628587;19;19926;-78
2023/09/30 03:53:49;;;;;;;;;;;17.00;99.90;;;;;;7627929;19;19914;-78
2023/09/30 03:56:22;;;;;;;;;;;17.10;99.90;;;;;;7625082;19;19914;-77
2023/09/30 03:58:54;;;;;;;;;;;17.00;99.90;;;;;;7616855;19;19945;-77
2023/09/30 04:01:27;;;;;;;;;;;17.00;99.90;;;;;;7619512;19;19926;-77
2023/09/30 04:03:59;;;;;;;;;;;17.00;99.90;;;;;;7624990;19;19915;-77
2023/09/30 04:06:32;;;;;;;;;;;17.00;99.90;;;;;;7615325;19;20639;-77
2023/09/30 04:09:11;;;;;;;;;;;16.90;99.90;;;;;;7619116;19;19930;-77
2023/09/30 04:11:44;;;;;;;;;;;17.10;99.90;;;;;;7610578;19;19934;-77
2023/09/30 04:14:17;;;;;;;;;;;17.00;99.90;;;;;;7612763;19;19918;-78
2023/09/30 04:16:49;;;;;;;;;;;17.00;99.90;;;;;;7603018;19;19937;-77
2023/09/30 04:19:22;;;;;;;;;;;17.00;99.90;;;;;;7612088;19;19915;-77
2023/09/30 04:21:54;;;;;;;;;;;17.00;99.90;;;;;;7613341;19;19915;-77
2023/09/30 04:24:29;;;;;;;;;;;17.00;99.90;;;;;;7613867;19;20141;-79
2023/09/30 04:27:04;;;;;;;;;;;17.00;99.90;;;;;;7613542;19;19919;-79
2023/09/30 04:29:37;;;;;;;;;;;17.00;99.90;;;;;;7613337;19;19914;-77
2023/09/30 04:32:09;;;;;;;;;;;17.00;99.90;;;;;;7614852;19;20316;-79
2023/09/30 04:34:43;;;;;;;;;;;17.00;99.90;;;;;;7610518;19;19925;-79
2023/09/30 04:37:18;;;;;;;;;;;17.10;99.90;;;;;;7624602;19;20378;-77
2023/09/30 04:39:51;;;;;;;;;;;17.10;99.90;;;;;;7614384;19;20961;-78
2023/09/30 04:42:25;;;;;;;;;;;17.10;99.90;;;;;;7608104;19;19929;-78
2023/09/30 04:44:59;;;;;;;;;;;17.00;99.90;;;;;;7611717;19;19926;-78
2023/09/30 04:47:34;;;;;;;;;;;17.00;99.90;;;;;;7606707;19;19923;-77
2023/09/30 04:50:07;;;;;;;;;;;17.00;99.90;;;;;;7603068;19;20298;-78
2023/09/30 04:52:40;;;;;;;;;;;16.90;99.90;;;;;;7605275;19;19960;-77
2023/09/30 04:55:15;;;;;;;;;;;17.00;99.90;;;;;;7600514;19;19914;-79
2023/09/30 04:57:51;;;;;;;;;;;17.00;99.90;;;;;;7599517;19;19919;-77
2023/09/30 05:00:33;;;;;;;;;;;16.90;99.90;;;;;;7605255;19;19961;-78
2023/09/30 05:03:07;;;;;;;;;;;16.80;99.90;;;;;;7597330;19;19919;-77
2023/09/30 05:05:39;;;;;;;;;;;16.80;99.90;;;;;;7600802;19;19922;-76
2023/09/30 05:08:13;;;;;;;;;;;16.70;99.90;;;;;;7599737;19;19918;-80
2023/09/30 05:10:46;;;;;;;;;;;16.70;99.90;;;;;;7590573;19;19914;-77
2023/09/30 05:13:18;;;;;;;;;;;16.70;99.90;;;;;;7604095;19;20841;-79
2023/09/30 05:15:51;;;;;;;;;;;16.70;99.90;;;;;;7598539;19;19929;-77
2023/09/30 05:18:24;;;;;;;;;;;16.60;99.90;;;;;;7602422;19;19922;-79
2023/09/30 05:20:56;;;;;;;;;;;16.60;99.90;;;;;;7606116;19;19943;-79
2023/09/30 05:23:28;;;;;;;;;;;16.60;99.90;;;;;;7608774;19;19959;-79
2023/09/30 05:26:01;;;;;;;;;;;16.60;99.90;;;;;;7603619;19;20907;-78
2023/09/30 05:28:34;;;;;;;;;;;16.50;99.90;;;;;;7600382;19;20609;-79
2023/09/30 05:31:07;;;;;;;;;;;16.50;99.90;;;;;;7598567;19;19915;-78
2023/09/30 05:33:39;;;;;;;;;;;16.50;99.90;;;;;;7597654;19;19937;-78
2023/09/30 05:36:13;;;;;;;;;;;16.50;99.90;;;;;;7599400;19;19979;-78
2023/09/30 05:38:47;;;;;;;;;;;16.60;99.90;;;;;;7590366;19;19934;-79
2023/09/30 05:41:20;;;;;;;;;;;16.60;99.90;;;;;;7588761;19;21245;-77
2023/09/30 05:43:53;;;;;;;;;;;16.60;99.90;;;;;;7600079;19;19915;-77
2023/09/30 05:46:27;;;;;;;;;;;16.60;99.90;;;;;;7592933;19;20984;-77
2023/09/30 05:48:59;;;;;;;;;;;16.50;99.90;;;;;;7604050;19;19926;-77
2023/09/30 05:51:32;;;;;;;;;;;16.50;99.90;;;;;;7601834;19;19970;-77
2023/09/30 05:54:05;;;;;;;;;;;16.50;99.90;;;;;;7587438;19;19998;-77
2023/09/30 05:56:37;;;;;;;;;;;16.50;99.90;;;;;;7587904;19;20008;-77
2023/09/30 05:59:09;;;;;;;;;;;16.50;99.90;;;;;;7583968;19;19918;-76
2023/09/30 06:01:42;;;;;;;;;;;16.50;99.90;;;;;;7605203;19;19922;-76
2023/09/30 06:04:14;;;;;;;;;;;16.40;99.90;;;;;;7600621;19;19926;-77
2023/09/30 06:06:47;;;;;;;;;;;16.50;99.90;;;;;;7605334;19;19967;-78
2023/09/30 06:09:21;;;;;;;;;;;16.70;99.90;;;;;;7595018;19;19951;-77
2023/09/30 06:11:53;;;;;;;;;;;16.60;99.90;;;;;;7600724;19;20752;-77
2023/09/30 06:14:27;;;;;;;;;;;16.60;99.90;;;;;;7600571;19;20409;-77
2023/09/30 06:17:00;;;;;;;;;;;16.60;99.90;;;;;;7593871;19;19922;-77
2023/09/30 06:19:32;;;;;;;;;;;16.60;99.90;;;;;;7600835;19;20345;-77
2023/09/30 06:22:04;;;;;;;;;;;16.60;99.90;;;;;;7590094;19;19943;-77
2023/09/30 06:24:36;;;;;;;;;;;16.50;99.90;;;;;;7598160;19;19923;-77
2023/09/30 06:27:13;;;;;;;;;;;16.60;99.90;;;;;;7590044;19;19982;-78
2023/09/30 06:29:46;;;;;;;;;;;16.70;99.90;;;;;;7600532;19;20017;-78
2023/09/30 06:32:18;;;;;;;;;;;16.80;99.90;;;;;;7597609;19;20403;-77
2023/09/30 06:34:51;;;;;;;;;;;16.80;99.90;;;;;;7589083;19;19918;-77
2023/09/30 06:37:26;;;;;;;;;;;16.70;99.90;;;;;;7583132;19;19922;-77
2023/09/30 06:39:58;;;;;;;;;;;16.70;99.90;;;;;;7576114;19;19918;-77
2023/09/30 06:42:31;;;;;;;;;;;16.70;99.90;;;;;;7580977;19;20932;-77
2023/09/30 06:45:06;;;;;;;;;;;16.70;99.90;;;;;;7587732;19;19918;-78
2023/09/30 06:47:39;;;;;;;;;;;16.70;99.90;;;;;;7586548;19;19923;-76
2023/09/30 06:50:16;;;;;;;;;;;16.70;99.90;;;;;;7587666;19;19922;-77
2023/09/30 06:52:49;;;;;;;;;;;16.70;99.90;;;;;;7580330;19;19919;-77
2023/09/30 06:55:22;;;;;;;;;;;16.70;99.90;;;;;;7579942;19;20765;-78
2023/09/30 06:57:54;;;;;;;;;;;16.80;99.90;;;;;;7578236;19;19926;-79
2023/09/30 07:00:27;;;;;;;;;;;16.80;99.90;;;;;;7573653;19;19928;-78
2023/09/30 07:02:59;;;;;;;;;;;16.90;99.90;;;;;;7594893;19;19938;-77
2023/09/30 07:05:32;;;;;;;;;;;16.70;99.90;;;;;;7594244;19;19923;-77
2023/09/30 07:08:04;;;;;;;;;;;16.70;99.90;;;;;;7564915;19;20227;-77
2023/09/30 07:10:37;;;;;;;;;;;16.70;99.90;;;;;;7571593;19;19919;-76
2023/09/30 07:13:09;;;;;;;;;;;16.70;99.90;;;;;;7582178;19;19925;-76
2023/09/30 07:15:41;;;;;;;;;;;16.70;99.90;;;;;;7590533;19;19923;-77
2023/09/30 07:18:14;;;;;;;;;;;16.70;99.90;;;;;;7580233;19;19922;-76
2023/09/30 07:20:46;;;;;;;;;;;16.70;99.90;;;;;;7577094;19;19957;-76
2023/09/30 07:23:19;;;;;;;;;;;16.70;99.90;;;;;;7581277;19;19922;-77
2023/09/30 07:25:52;;;;;;;;;;;16.80;99.90;;;;;;7594383;19;19939;-77
2023/09/30 07:28:25;;;;;;;;;;;16.80;99.90;;;;;;7576027;19;19930;-79
2023/09/30 07:30:57;;;;;;;;;;;16.80;99.90;;;;;;7593910;19;19958;-79
2023/09/30 07:33:30;;;;;;;;;;;16.80;99.90;;;;;;7579275;19;20911;-79
2023/09/30 07:36:03;;;;;;;;;;;17.00;99.90;;;;;;7585303;19;20010;-78
2023/09/30 07:38:35;;;;;;;;;;;17.00;99.90;;;;;;7587143;19;19922;-78
2023/09/30 07:41:10;;;;;;;;;;;17.10;99.90;;;;;;7567095;19;19918;-78
2023/09/30 07:43:42;;;;;;;;;;;17.00;99.90;;;;;;7582325;19;19922;-78
2023/09/30 07:46:15;;;;;;;;;;;17.00;99.90;;;;;;7574481;19;20605;-78
2023/09/30 07:48:47;;;;;;;;;;;17.00;99.90;;;;;;7565700;19;19922;-78
2023/09/30 07:51:20;;;;;;;;;;;17.00;99.90;;;;;;7576307;19;19965;-79
2023/09/30 07:53:52;;;;;;;;;;;16.90;99.90;;;;;;7570925;19;19948;-77
2023/09/30 07:56:25;;;;;;;;;;;17.00;99.90;;;;;;7592541;19;19919;-80
2023/09/30 07:58:57;;;;;;;;;;;17.00;99.90;;;;;;7562004;19;19930;-77
2023/09/30 08:01:30;;;;;;;;;;;17.00;99.90;;;;;;7543837;19;19922;-78
2023/09/30 08:04:02;;;;;;;;;;;16.90;99.90;;;;;;7562894;19;20580;-77
2023/09/30 08:06:34;;;;;;;;;;;17.00;99.90;;;;;;7564504;19;19953;-76
2023/09/30 08:09:12;;;;;;;;;;;16.90;99.90;;;;;;7576353;19;19926;-77
2023/09/30 08:11:45;;;;;;;;;;;16.90;99.90;;;;;;7581836;19;19925;-76
2023/09/30 08:14:17;;;;;;;;;;;17.00;99.90;;;;;;7570264;19;19915;-76
2023/09/30 08:16:49;;;;;;;;;;;17.10;99.90;;;;;;7568754;19;19911;-78
2023/09/30 08:19:22;;;;;;;;;;;17.10;99.90;;;;;;7576439;19;19921;-75
2023/09/30 08:21:54;;;;;;;;;;;17.20;99.90;;;;;;7575887;19;19923;-76
2023/09/30 08:24:28;;;;;;;;;;;17.20;99.90;;;;;;7570074;19;20675;-75
2023/09/30 08:27:00;;;;;;;;;;;17.20;99.90;;;;;;7573474;19;19949;-76
2023/09/30 08:29:34;;;;;;;;;;;17.30;99.90;;;;;;7565286;19;19919;-76
2023/09/30 08:32:07;;;;;;;;;;;17.30;99.90;;;;;;7587097;19;19931;-77
2023/09/30 08:34:39;;;;;;;;;;;17.40;99.90;;;;;;7568244;19;19976;-76
2023/09/30 08:37:11;;;;;;;;;;;17.50;99.90;;;;;;7570565;19;19923;-79
2023/09/30 08:39:43;;;;;;;;;;;17.70;99.90;;;;;;7577782;19;20553;-75
2023/09/30 08:42:18;;;;;;;;;;;17.60;99.90;;;;;;7567395;19;19926;-78
2023/09/30 08:44:53;;;;;;;;;;;17.70;99.90;;;;;;7566568;19;20367;-77
2023/09/30 08:47:27;;;;;;;;;;;17.60;99.90;;;;;;7574372;19;19925;-77
2023/09/30 08:50:05;;;;;;;;;;;17.60;99.90;;;;;;7574041;19;19945;-77
2023/09/30 08:52:40;;;;;;;;;;;17.80;99.90;;;;;;7573298;19;19922;-77
2023/09/30 08:55:13;;;;;;;;;;;17.90;99.90;;;;;;7575784;19;20241;-78
2023/09/30 08:57:46;;;;;;;;;;;17.90;99.90;;;;;;7576409;19;19918;-77
2023/09/30 09:00:20;;;;;;;;;;;18.00;99.90;;;;;;7582154;19;19919;-77
2023/09/30 09:02:52;;;;;;;;;;;18.00;99.90;;;;;;7579350;19;19919;-77
2023/09/30 09:05:25;;;;;;;;;;;18.00;99.90;;;;;;7572536;19;19929;-78
2023/09/30 09:07:57;;;;;;;;;;;18.10;99.90;;;;;;7567435;19;19926;-74
2023/09/30 09:10:30;;;;;;;;;;;18.10;99.90;;;;;;7574978;19;20288;-77
2023/09/30 09:13:02;;;;;;;;;;;18.20;99.90;;;;;;7566570;19;20753;-75
2023/09/30 09:15:35;;;;;;;;;;;18.30;99.90;;;;;;7552722;19;20359;-78
2023/09/30 09:18:07;;;;;;;;;;;18.40;99.90;;;;;;7562938;19;20726;-77
2023/09/30 09:20:40;;;;;;;;;;;18.60;99.90;;;;;;7565898;19;19926;-77
2023/09/30 09:23:14;;;;;;;;;;;18.80;99.90;;;;;;7569505;19;20534;-78
2023/09/30 09:25:49;;;;;;;;;;;18.80;99.90;;;;;;7563259;19;19926;-78
2023/09/30 09:28:33;;;;;;;;;;;18.80;99.90;;;;;;7553357;19;19914;-76
2023/09/30 09:31:26;;;;;;;;;;;18.80;99.90;;;;;;7556130;19;20800;-77
2023/09/30 09:33:59;;;;;;;;;;;18.80;99.90;;;;;;7553656;19;19922;-78
2023/09/30 09:36:41;;;;;;;;;;;19.00;99.90;;;;;;7564229;19;21219;-75
2023/09/30 09:39:13;;;;;;;;;;;18.70;99.90;;;;;;7555550;19;19918;-77
2023/09/30 09:41:50;;;;;;;;;;;18.60;99.90;;;;;;7556859;19;19922;-75
2023/09/30 09:44:23;;;;;;;;;;;18.70;99.90;;;;;;7546043;19;19927;-78
2023/09/30 09:46:56;;;;;;;;;;;18.50;99.90;;;;;;7553201;19;19925;-76
2023/09/30 09:49:29;;;;;;;;;;;18.60;99.90;;;;;;7544096;19;19926;-75
2023/09/30 09:52:02;;;;;;;;;;;18.70;99.90;;;;;;7547657;19;19922;-76
2023/09/30 09:54:34;;;;;;;;;;;18.90;99.90;;;;;;7553036;19;20361;-76
2023/09/30 09:57:09;;;;;;;;;;;19.00;99.90;;;;;;7558281;19;19994;-78
2023/09/30 09:59:42;;;;;;;;;;;19.20;99.90;;;;;;7572822;19;19915;-75
2023/09/30 10:02:15;;;;;;;;;;;19.30;99.90;;;;;;7583488;19;20002;-79
2023/09/30 10:04:48;;;;;;;;;;;19.40;99.90;;;;;;7575954;19;21174;-77
2023/09/30 10:07:22;;;;;;;;;;;19.30;99.90;;;;;;7581024;19;19994;-76
2023/09/30 10:09:57;;;;;;;;;;;19.30;99.90;;;;;;7601280;19;19915;-76
2023/09/30 10:12:36;;;;;;;;;;;19.30;99.90;;;;;;7569132;19;19925;-77
2023/09/30 10:15:34;;;;;;;;;;;19.10;99.90;;;;;;7593658;19;20259;-77
2023/09/30 10:18:07;;;;;;;;;;;19.20;99.90;;;;;;7575833;19;20577;-76
2023/09/30 10:20:46;;;;;;;;;;;19.40;99.90;;;;;;7598483;19;19945;-78
2023/09/30 10:23:32;;;;;;;;;;;19.70;99.90;;;;;;7587399;19;19919;-75
2023/09/30 10:26:15;;;;;;;;;;;19.70;99.90;;;;;;7580992;19;20727;-78
2023/09/30 10:28:50;;;;;;;;;;;19.80;99.90;;;;;;7584867;19;19922;-78
2023/09/30 10:31:26;;;;;;;;;;;19.90;99.90;;;;;;7583589;19;20867;-77
2023/09/30 10:34:02;;;;;;;;;;;19.70;99.90;;;;;;7589675;19;19922;-77
2023/09/30 10:36:37;;;;;;;;;;;19.80;99.90;;;;;;7574319;19;20821;-76
2023/09/30 10:39:14;;;;;;;;;;;19.70;99.90;;;;;;7579168;19;20005;-76
2023/09/30 10:41:50;;;;;;;;;;;19.60;99.90;;;;;;7587039;19;19927;-76
2023/09/30 10:44:25;;;;;;;;;;;19.80;99.90;;;;;;7576399;19;19937;-76
2023/09/30 10:47:00;;;;;;;;;;;20.00;99.90;;;;;;7591137;19;19915;-78
2023/09/30 10:49:33;;;;;;;;;;;19.90;99.90;;;;;;7586121;19;19933;-78
2023/09/30 10:52:05;;;;;;;;;;;20.00;99.90;;;;;;7567753;19;20770;-77
2023/09/30 10:54:37;;;;;;;;;;;20.20;99.90;;;;;;7592752;19;19927;-78
2023/09/30 10:57:10;;;;;;;;;;;20.20;99.90;;;;;;7597668;19;20422;-76
2023/09/30 10:59:42;;;;;;;;;;;20.30;99.90;;;;;;7589913;19;19918;-78
2023/09/30 11:02:21;;;;;;;;;;;20.40;99.90;;;;;;7596571;19;19926;-78
2023/09/30 11:04:54;;;;;;;;;;;20.60;99.90;;;;;;7600376;19;20702;-78
2023/09/30 11:07:28;;;;;;;;;;;20.50;99.90;;;;;;7583801;19;19943;-77
2023/09/30 11:10:01;;;;;;;;;;;20.50;99.90;;;;;;7582172;19;19923;-78
2023/09/30 11:12:34;;;;;;;;;;;20.70;99.90;;;;;;7588628;19;20383;-78
2023/09/30 11:15:09;;;;;;;;;;;20.80;99.50;;;;;;7587221;19;19949;-78
2023/09/30 11:17:41;;;;;;;;;;;20.80;99.70;;;;;;7581249;19;20573;-77
2023/09/30 11:20:15;;;;;;;;;;;21.20;99.90;;;;;;7594375;19;19978;-78
2023/09/30 11:22:48;;;;;;;;;;;21.40;99.00;;;;;;7598145;19;19923;-77
2023/09/30 11:25:21;;;;;;;;;;;21.40;98.70;;;;;;7597693;19;19929;-79
2023/09/30 11:28:13;;;;;;;;;;;21.60;98.10;;;;;;7593486;19;19918;-77
2023/09/30 11:30:59;;;;;;;;;;;22.00;98.50;;;;;;7561360;19;19919;-76
2023/09/30 11:33:33;;;;;;;;;;;22.80;96.00;;;;;;7572539;19;20492;-77
2023/09/30 11:36:06;;;;;;;;;;;23.20;95.30;;;;;;7593142;19;19926;-76
2023/09/30 11:38:43;;;;;;;;;;;23.50;95.30;;;;;;7598859;19;19947;-76
2023/09/30 11:41:18;;;;;;;;;;;24.00;93.00;;;;;;7591235;19;19933;-75
2023/09/30 11:44:00;;;;;;;;;;;24.30;93.50;;;;;;7590528;19;19943;-77
2023/09/30 11:46:35;;;;;;;;;;;24.10;91.40;;;;;;7578016;19;19930;-76
2023/09/30 11:49:08;;;;;;;;;;;24.50;91.90;;;;;;7584136;19;19916;-77
2023/09/30 11:51:46;;;;;;;;;;;24.70;90.90;;;;;;7579508;19;19943;-76
2023/09/30 11:54:18;;;;;;;;;;;24.90;90.90;;;;;;7588608;19;20396;-77
2023/09/30 11:56:50;;;;;;;;;;;25.10;90.20;;;;;;7576263;19;20527;-77
2023/09/30 11:59:22;;;;;;;;;;;24.40;90.10;;;;;;7586301;19;19907;-76
2023/09/30 12:01:55;;;;;;;;;;;23.60;91.50;;;;;;7585561;19;19915;-76
2023/09/30 12:04:46;;;;;;;;;;;22.80;92.40;;;;;;7583342;19;19926;-76
2023/09/30 12:07:19;;;;;;;;;;;22.40;93.10;;;;;;7581776;19;20258;-76
2023/09/30 12:09:51;;;;;;;;;;;21.90;93.30;;;;;;7598608;19;19922;-76
2023/09/30 12:12:24;;;;;;;;;;;21.80;94.20;;;;;;7577159;19;20262;-77
2023/09/30 12:14:56;;;;;;;;;;;21.80;94.70;;;;;;7597993;19;19930;-78
2023/09/30 12:17:29;;;;;;;;;;;22.00;95.00;;;;;;7598621;19;19967;-78
2023/09/30 12:20:03;;;;;;;;;;;22.90;93.90;;;;;;7592439;19;20115;-77
2023/09/30 12:22:37;;;;;;;;;;;24.10;91.00;;;;;;7592918;19;19998;-77
2023/09/30 12:25:09;;;;;;;;;;;24.60;90.00;;;;;;7589222;19;19922;-77
2023/09/30 12:27:42;;;;;;;;;;;24.70;87.70;;;;;;7561559;19;19919;-76
2023/09/30 12:30:14;;;;;;;;;;;25.40;88.70;;;;;;7569134;19;19926;-76
2023/09/30 12:32:47;;;;;;;;;;;26.00;82.70;;;;;;7584917;19;19925;-78
2023/09/30 12:35:19;;;;;;;;;;;26.30;82.00;;;;;;7581668;19;19957;-77
2023/09/30 12:37:51;;;;;;;;;;;26.50;80.00;;;;;;7579043;19;19926;-78
2023/09/30 12:40:24;;;;;;;;;;;26.80;78.20;;;;;;7571662;19;19929;-76
2023/09/30 12:42:56;;;;;;;;;;;27.20;76.50;;;;;;7553550;19;19953;-77
2023/09/30 12:45:29;;;;;;;;;;;26.70;74.70;;;;;;7581596;19;19918;-78
2023/09/30 12:48:01;;;;;;;;;;;27.00;76.00;;;;;;7586461;19;19978;-77
2023/09/30 12:50:33;;;;;;;;;;;27.50;75.00;;;;;;7591585;19;19911;-77
2023/09/30 12:53:06;;;;;;;;;;;27.80;71.30;;;;;;7561393;19;20850;-77
2023/09/30 12:55:39;;;;;;;;;;;;;;;;;;7582305;19;19974;-76
2023/09/30 12:58:11;;;;;;;;;;;28.00;70.80;;;;;;7589517;19;19919;-76
2023/09/30 13:00:43;;;;;;;;;;;28.00;69.20;;;;;;7583849;19;20530;-77
2023/09/30 13:03:16;;;;;;;;;;;28.10;67.80;;;;;;7592485;19;19923;-78
2023/09/30 13:05:48;;;;;;;;;;;27.60;68.10;;;;;;7593661;19;19918;-76
2023/09/30 13:08:20;;;;;;;;;;;27.80;70.00;;;;;;7585826;19;19950;-77
2023/09/30 13:10:53;;;;;;;;;;;28.40;69.70;;;;;;7585484;19;19927;-77
2023/09/30 13:13:25;;;;;;;;;;;28.40;69.00;;;;;;7589509;19;20188;-77
2023/09/30 13:15:57;;;;;;;;;;;28.50;68.50;;;;;;7579938;19;19926;-77
2023/09/30 13:18:30;;;;;;;;;;;28.30;66.40;;;;;;7582921;19;19917;-78
2023/09/30 13:21:05;;;;;;;;;;;28.30;68.00;;;;;;7578351;19;19926;-77
2023/09/30 13:23:38;;;;;;;;;;;27.90;68.00;;;;;;7558739;19;19926;-76
2023/09/30 13:26:10;;;;;;;;;;;26.90;71.80;;;;;;7577603;19;19926;-75
2023/09/30 13:28:42;;;;;;;;;;;26.30;72.90;;;;;;7576259;19;19914;-75
2023/09/30 13:31:14;;;;;;;;;;;26.50;72.20;;;;;;7593023;19;19922;-76
2023/09/30 13:33:47;;;;;;;;;;;27.00;68.90;;;;;;7583898;19;19929;-78
2023/09/30 13:36:20;;;;;;;;;;;27.30;69.40;;;;;;7565725;19;20546;-76
2023/09/30 13:38:52;;;;;;;;;;;27.50;68.50;;;;;;7577665;19;20431;-77
2023/09/30 13:41:26;;;;;;;;;;;28.40;68.40;;;;;;7572496;19;19921;-76
2023/09/30 13:43:58;;;;;;;;;;;28.80;66.80;;;;;;7591553;19;19922;-76
2023/09/30 13:46:30;;;;;;;;;;;28.70;63.60;;;;;;7586618;19;19923;-76
2023/09/30 13:49:03;;;;;;;;;;;29.30;66.50;;;;;;7576064;19;20559;-76
2023/09/30 13:51:38;;;;;;;;;;;29.90;64.90;;;;;;7564906;19;20543;-76
2023/09/30 13:54:11;;;;;;;;;;;30.20;64.10;;;;;;7569232;19;19923;-76
2023/09/30 13:56:44;;;;;;;;;;;29.00;64.00;;;;;;7563804;19;19946;-76
2023/09/30 13:59:16;;;;;;;;;;;28.00;65.80;;;;;;7584400;19;19918;-76
2023/09/30 14:01:49;;;;;;;;;;;27.30;68.40;;;;;;7636752;19;19939;-76
2023/09/30 14:04:22;;;;;;;;;;;26.20;69.60;;;;;;7644153;19;19926;-75
2023/09/30 14:06:56;;;;;;;;;;;25.50;71.80;;;;;;7629815;19;19922;-75
2023/09/30 14:09:29;;;;;;;;;;;25.00;73.60;;;;;;7644261;19;19933;-76
2023/09/30 14:12:07;;;;;;;;;;;24.60;75.20;;;;;;7647958;19;20381;-74
2023/09/30 14:14:39;;;;;;;;;;;24.10;75.50;;;;;;7658131;19;19926;-75
2023/09/30 14:17:14;;;;;;;;;;;23.80;77.60;;;;;;7652337;19;19923;-76
2023/09/30 14:19:47;;;;;;;;;;;23.60;78.30;;;;;;7638770;19;19993;-75
2023/09/30 14:22:19;;;;;;;;;;;23.40;80.10;;;;;;7618456;19;20502;-76
2023/09/30 14:24:51;;;;;;;;;;;23.20;80.10;;;;;;7624590;19;19922;-76
2023/09/30 14:27:23;;;;;;;;;;;23.00;80.80;;;;;;7622609;19;19927;-76
2023/09/30 14:29:55;;;;;;;;;;;22.90;82.20;;;;;;7625466;19;19949;-75
2023/09/30 14:32:28;;;;;;;;;;;22.70;83.10;;;;;;7627089;19;19918;-76
2023/09/30 14:35:00;;;;;;;;;;;22.60;83.80;;;;;;7619152;19;19998;-77
2023/09/30 14:37:32;;;;;;;;;;;22.30;84.30;;;;;;7616645;19;19915;-77
2023/09/30 14:40:05;;;;;;;;;;;22.20;84.70;;;;;;7616478;19;19923;-76
2023/09/30 14:42:38;;;;;;;;;;;22.20;85.10;;;;;;7615754;19;20749;-76
2023/09/30 14:45:10;;;;;;;;;;;21.90;86.50;;;;;;7603575;19;20308;-76
2023/09/30 14:47:43;;;;;;;;;;;21.80;86.90;;;;;;7614390;19;19922;-76
2023/09/30 14:50:15;;;;;;;;;;;21.70;87.00;;;;;;7610863;19;19961;-77
2023/09/30 14:52:48;;;;;;;;;;;21.60;87.10;;;;;;7613179;19;19964;-76
2023/09/30 14:55:21;;;;;;;;;;;21.50;87.80;;;;;;7617516;19;19942;-77